Weather observations for the past three days for
Lawton, Lawton Municipal Airport
Imperial (Metric)
Date Time (cdt) Wind (mph) Vis. (mi.) Weather Sky Cond. Temperature (ºF) Relative Humidity Wind Chill (°F) Heat Index (°F) Pressure Precipitation (in)
Air Dwpt 6 hour altimeter (in) sea level (mb) 1 hr 3 hr 6 hr
Max. Min.
04 07:53 SE 7 10.00 Fair CLR 77 70 79% 79 29.93 1011.9
04 06:53 E 5 10.00 Fair CLR 75.9 69.1 82 75.9 79% 77 29.92 1011.5
04 05:53 SE 6 10.00 Fair CLR 75.9 68 77% 77 29.91 1011.1
04 04:53 SE 7 10.00 Fair CLR 78.1 68 71% 80 29.91 1011.0
04 03:53 SE 6 10.00 Fair CLR 79 68 69% 81 29.9 1010.8
04 02:53 SE 7 10.00 Fair CLR 80.1 68 67% 83 29.9 1010.9
04 01:53 SE 10 10.00 Fair CLR 82 68 63% 85 29.9 1010.9
04 00:53 SE 12 10.00 Fair CLR 82 70 98.1 82 67% 86 29.9 1011.0
03 23:53 SE 12 10.00 Fair CLR 82.9 70 65% 87 29.9 1011.0
03 22:53 SE 13 10.00 Fair CLR 84 71.1 65% 89 29.9 1011.0
03 21:53 SE 14 G 24 10.00 Fair CLR 86 71.1 61% 92 29.89 1010.6
03 20:53 SE 15 G 25 10.00 Fair CLR 88 70 55% 93 29.86 1009.6
03 19:53 E 16 10.00 Fair CLR 93 66.9 42% 97 29.83 1008.5
03 17:53 E 9 10.00 Fair CLR 99 63 31% 101 29.81 1007.8
03 16:53 E 16 G 20 10.00 Fair CLR 100 64.9 32% 103 29.81 1007.9
03 15:53 E 13 10.00 Fair CLR 100 66 33% 104 29.83 1008.5
03 14:53 SE 12 G 21 10.00 Fair CLR 99 66 34% 103 29.85 1009.2
03 13:53 E 10 10.00 Fair CLR 98.1 66 35% 102 29.88 1010.0
03 12:53 E 13 G 21 10.00 Fair CLR 95 66.9 95 75 40% 99 29.9 1010.9
03 11:53 SE 8 10.00 Fair CLR 91 69.1 49% 96 29.93 1011.8
03 10:53 SE 7 10.00 Fair CLR 87.1 70 57% 92 29.93 1012.0
03 09:53 E 10 10.00 Fair CLR 82.9 70 65% 87 29.94 1012.3
03 08:53 SE 14 10.00 Fair CLR 80.1 70 71% 83 29.95 1012.8
03 07:53 E 9 10.00 Fair CLR 75.9 68 77% 77 29.95 1012.6
03 06:53 E 6 10.00 Fair CLR 75 66.9 86 75 76% 76 29.94 1012.2
03 05:53 SE 6 10.00 Fair CLR 77 66.9 71% 79 29.93 1011.9
03 04:53 SE 6 10.00 Fair CLR 78.1 66.9 69% 80 29.93 1012.0
03 03:53 SE 7 10.00 Fair CLR 81 66.9 62% 83 29.93 1011.8
03 02:53 SE 8 10.00 Fair CLR 82 66.9 60% 85 29.93 1011.7
03 01:53 SE 9 10.00 Fair CLR 84 66.9 57% 87 29.92 1011.5
03 00:53 SE 12 10.00 Fair CLR 86 66 99 86 51% 88 29.92 1011.4
02 23:53 SE 10 10.00 Fair CLR 87.1 64 46% 88 29.91 1011.2
02 22:53 SE 13 10.00 Fair CLR 88 63 43% 89 29.92 1011.4
02 21:53 SE 13 10.00 Fair CLR 90 62.1 39% 90 29.91 1011.3
02 20:53 SE 12 10.00 Fair CLR 93 62.1 36% 94 29.89 1010.6
02 19:53 SE 12 10.00 Fair CLR 96.1 61 31% 97 29.87 1009.9
02 18:53 SE 12 10.00 Fair CLR 99 61 102.9 97 29% 100 29.86 1009.6
02 17:53 SE 8 10.00 Fair CLR 100.9 59 25% 101 29.86 1009.7
02 16:53 E 14 G 23 10.00 A Few Clouds FEW090 102 59 24% 102 29.87 1010.0
02 15:53 S 6 10.00 Fair CLR 102 61 26% 103 29.9 1010.8
02 14:53 Calm 10.00 Fair CLR 100.9 61 27% 102 29.93 1011.7
02 13:53 SW 7 G 16 10.00 A Few Clouds FEW075 100 63 30% 102 29.95 1012.6
02 12:53 S 14 10.00 Fair CLR 97 64 99 75.9 34% 99 29.98 1013.6
02 11:53 SE 10 10.00 Fair CLR 97 64.9 35% 100 30 1014.2
02 10:53 SE 8 10.00 Fair CLR 91.9 66 43% 95 30.01 1014.6
02 09:53 S 10 10.00 Fair CLR 89.1 66.9 48% 92 30.01 1014.7
02 08:53 S 10 10.00 Fair CLR 84 66 55% 86 30.02 1014.9
02 07:53 SE 7 10.00 Fair CLR 78.1 66 67% 80 30.02 1014.9
02 06:53 SE 6 10.00 Fair CLR 75.9 64.9 82 73 69% 78 30 1014.4
02 05:53 E 5 10.00 Fair CLR 75.9 64 67% 78 29.99 1014.1
02 04:53 E 5 10.00 Fair CLR 75.9 62.1 62% 78 29.99 1013.8
02 03:53 E 3 10.00 Fair CLR 78.1 63 60% 80 29.98 1013.7
02 02:53 SE 6 10.00 Fair CLR 80.1 62.1 54% 81 29.98 1013.5
02 01:53 Calm 10.00 Fair CLR 78.1 61 56% 80 29.98 1013.7
02 00:53 SE 5 10.00 Fair CLR 81 61 98.1 79 51% 82 29.98 1013.7
01 23:53 SE 5 10.00 Fair CLR 84 60.1 44% 84 29.98 1013.5
01 22:53 SE 7 10.00 Fair CLR 88 61 40% 88 29.97 1013.3
01 21:53 SE 8 10.00 Fair CLR 90 61 38% 90 29.95 1012.6
01 20:53 SE 10 10.00 Fair CLR 91.9 60.1 34% 92 29.93 1011.8
01 19:53 SE 9 10.00 Fair CLR 95 60.1 31% 95 29.92 1011.7
01 18:53 SE 10 10.00 A Few Clouds FEW100 98.1 57.9 102 95 26% 97 29.92 1011.7
01 17:53 S 9 10.00 Fair CLR 100 55.9 23% 99 29.92 1011.8
01 16:53 Vrbl 5 10.00 Fair CLR 100.9 55 22% 99 29.93 1011.8
01 15:53 S 6 10.00 Fair CLR 98.1 55.9 24% 97 29.95 1012.6
01 14:53 S 10 G 22 10.00 A Few Clouds FEW100 98.1 55.9 24% 97 29.97 1013.5
01 13:53 SW 8 10.00 Fair CLR 99 55.9 24% 98 30 1014.3
01 12:53 S 13 G 17 10.00 Partly Cloudy SCT080 98.1 57 99 69.1 25% 97 30.02 1015.1
01 11:53 SW 9 10.00 A Few Clouds FEW090 96.1 60.1 30% 96 30.04 1015.5
01 10:53 S 8 10.00 Fair CLR 93.9 62.1 35% 95 30.04 1015.8
01 09:53 SW 7 10.00 Fair CLR 88 62.1 42% 88 30.05 1016.2
01 08:53 SE 3 10.00 Fair CLR 81 60.1 49% 82 30.06 1016.4
Date Time (cdt) Wind (mph) Vis. (mi.) Weather Sky Cond. Air Dwpt Max. Min. Relative Humidity Wind Chill (°F) Heat Index (°F) altimeter (in) sea level (mb) 1 hr 3 hr 6 hr
6 hour
Temperature (ºF) Pressure Precipitation (in)